Terminal Aerodrome Forecast
Issued by NWS Springfield, MO

Home | Current Version | Previous Version | Text Only | Print | Product List | Glossary On
Versions: 1 2 3 4 5 6 7 8 9 10 11 12 13 14 15 16 17 18 19 20 21 22 23 24 25 26 27 28
000
FTUS43 KSGF 171700
TAFSGF
TAF
KSGF 171720Z 1718/1818 VRB03KT P6SM OVC080
      TEMPO 1719/1722 6SM -RAPL BR BKN015
     FM172200 12006KT P6SM OVC040
      TEMPO 1723/1802 5SM -RASN BR OVC010
     FM180200 13010KT 3SM -SN BR BKN007 OVC015
      TEMPO 1802/1806 1SM -SN BR OVC005
     FM181000 14008KT 3SM -DZ BR OVC005=

USA.gov is the U.S. government's official web portal to all federal, state and local government web resources and services.